sensor_id;sensor_type;location;lat;lon;timestamp;P1;durP1;ratioP1;P2;durP2;ratioP2
9342;SDS011;4710;51.382;7.244;2022-08-19T00:01:56;5.20;;;4.95;;
9342;SDS011;4710;51.382;7.244;2022-08-19T00:04:36;5.10;;;4.90;;
9342;SDS011;4710;51.382;7.244;2022-08-19T00:07:18;4.70;;;4.50;;
9342;SDS011;4710;51.382;7.244;2022-08-19T00:09:57;5.30;;;4.80;;
9342;SDS011;4710;51.382;7.244;2022-08-19T00:12:34;4.97;;;4.78;;
9342;SDS011;4710;51.382;7.244;2022-08-19T00:15:16;4.70;;;4.47;;
9342;SDS011;4710;51.382;7.244;2022-08-19T00:17:56;4.93;;;4.70;;
9342;SDS011;4710;51.382;7.244;2022-08-19T00:20:33;5.28;;;4.97;;
9342;SDS011;4710;51.382;7.244;2022-08-19T00:23:14;5.70;;;5.30;;
9342;SDS011;4710;51.382;7.244;2022-08-19T00:25:58;5.22;;;4.93;;
9342;SDS011;4710;51.382;7.244;2022-08-19T00:28:35;5.65;;;5.25;;
9342;SDS011;4710;51.382;7.244;2022-08-19T00:31:17;5.45;;;5.05;;
9342;SDS011;4710;51.382;7.244;2022-08-19T00:33:54;5.25;;;5.03;;
9342;SDS011;4710;51.382;7.244;2022-08-19T00:36:32;5.87;;;5.20;;
9342;SDS011;4710;51.382;7.244;2022-08-19T00:39:11;5.37;;;5.03;;
9342;SDS011;4710;51.382;7.244;2022-08-19T00:41:51;5.32;;;4.93;;
9342;SDS011;4710;51.382;7.244;2022-08-19T00:44:29;5.93;;;5.53;;
9342;SDS011;4710;51.382;7.244;2022-08-19T00:47:10;5.35;;;5.15;;
9342;SDS011;4710;51.382;7.244;2022-08-19T00:49:50;5.87;;;5.57;;
9342;SDS011;4710;51.382;7.244;2022-08-19T00:52:31;5.72;;;5.43;;
9342;SDS011;4710;51.382;7.244;2022-08-19T00:55:12;6.50;;;6.10;;
9342;SDS011;4710;51.382;7.244;2022-08-19T00:57:54;7.10;;;6.50;;
9342;SDS011;4710;51.382;7.244;2022-08-19T01:00:34;6.40;;;6.10;;
9342;SDS011;4710;51.382;7.244;2022-08-19T01:03:16;6.75;;;6.22;;
9342;SDS011;4710;51.382;7.244;2022-08-19T01:05:56;5.80;;;5.50;;
9342;SDS011;4710;51.382;7.244;2022-08-19T01:08:34;6.20;;;5.80;;
9342;SDS011;4710;51.382;7.244;2022-08-19T01:11:11;5.97;;;5.57;;
9342;SDS011;4710;51.382;7.244;2022-08-19T01:13:53;5.87;;;5.57;;
9342;SDS011;4710;51.382;7.244;2022-08-19T01:16:30;6.20;;;5.90;;
9342;SDS011;4710;51.382;7.244;2022-08-19T01:19:22;6.43;;;5.93;;
9342;SDS011;4710;51.382;7.244;2022-08-19T01:22:05;6.62;;;6.07;;
9342;SDS011;4710;51.382;7.244;2022-08-19T01:24:48;10.68;;;6.40;;
9342;SDS011;4710;51.382;7.244;2022-08-19T01:30:21;6.47;;;6.07;;
9342;SDS011;4710;51.382;7.244;2022-08-19T01:33:02;5.75;;;5.45;;
9342;SDS011;4710;51.382;7.244;2022-08-19T01:35:44;8.85;;;6.00;;
9342;SDS011;4710;51.382;7.244;2022-08-19T01:38:23;6.18;;;5.87;;
9342;SDS011;4710;51.382;7.244;2022-08-19T01:41:03;7.05;;;6.60;;
9342;SDS011;4710;51.382;7.244;2022-08-19T01:43:45;7.60;;;7.15;;
9342;SDS011;4710;51.382;7.244;2022-08-19T01:46:30;8.65;;;7.78;;
9342;SDS011;4710;51.382;7.244;2022-08-19T01:49:11;8.52;;;8.00;;
9342;SDS011;4710;51.382;7.244;2022-08-19T01:51:48;8.43;;;7.80;;
9342;SDS011;4710;51.382;7.244;2022-08-19T01:54:25;8.93;;;8.30;;
9342;SDS011;4710;51.382;7.244;2022-08-19T01:57:08;9.57;;;8.77;;
9342;SDS011;4710;51.382;7.244;2022-08-19T01:59:49;9.57;;;8.88;;
9342;SDS011;4710;51.382;7.244;2022-08-19T02:02:29;9.73;;;9.13;;
9342;SDS011;4710;51.382;7.244;2022-08-19T02:05:10;9.18;;;8.68;;
9342;SDS011;4710;51.382;7.244;2022-08-19T02:07:55;9.27;;;8.55;;
9342;SDS011;4710;51.382;7.244;2022-08-19T02:10:42;8.95;;;8.35;;
9342;SDS011;4710;51.382;7.244;2022-08-19T02:13:22;9.07;;;8.48;;
9342;SDS011;4710;51.382;7.244;2022-08-19T02:16:02;9.10;;;8.48;;
9342;SDS011;4710;51.382;7.244;2022-08-19T02:18:40;9.07;;;8.27;;
9342;SDS011;4710;51.382;7.244;2022-08-19T02:21:23;9.30;;;8.40;;
9342;SDS011;4710;51.382;7.244;2022-08-19T02:24:01;8.20;;;7.62;;
9342;SDS011;4710;51.382;7.244;2022-08-19T02:26:43;9.13;;;8.23;;
9342;SDS011;4710;51.382;7.244;2022-08-19T02:29:21;8.40;;;7.87;;
9342;SDS011;4710;51.382;7.244;2022-08-19T02:32:00;8.77;;;8.07;;
9342;SDS011;4710;51.382;7.244;2022-08-19T02:34:37;9.07;;;8.38;;
9342;SDS011;4710;51.382;7.244;2022-08-19T02:37:15;8.95;;;8.25;;
9342;SDS011;4710;51.382;7.244;2022-08-19T02:39:59;9.32;;;8.73;;
9342;SDS011;4710;51.382;7.244;2022-08-19T02:42:40;8.88;;;8.27;;
9342;SDS011;4710;51.382;7.244;2022-08-19T02:45:22;8.93;;;8.32;;
9342;SDS011;4710;51.382;7.244;2022-08-19T02:48:03;8.95;;;8.35;;
9342;SDS011;4710;51.382;7.244;2022-08-19T02:50:45;8.48;;;7.97;;
9342;SDS011;4710;51.382;7.244;2022-08-19T02:53:26;7.75;;;7.25;;
9342;SDS011;4710;51.382;7.244;2022-08-19T02:56:06;9.73;;;8.60;;
9342;SDS011;4710;51.382;7.244;2022-08-19T02:58:44;8.45;;;7.85;;
9342;SDS011;4710;51.382;7.244;2022-08-19T03:01:30;8.35;;;7.85;;
9342;SDS011;4710;51.382;7.244;2022-08-19T03:04:13;8.63;;;8.13;;
9342;SDS011;4710;51.382;7.244;2022-08-19T03:06:59;8.55;;;8.05;;
9342;SDS011;4710;51.382;7.244;2022-08-19T03:09:39;10.88;;;10.15;;
9342;SDS011;4710;51.382;7.244;2022-08-19T03:12:21;9.30;;;8.70;;
9342;SDS011;4710;51.382;7.244;2022-08-19T03:15:01;9.30;;;8.70;;
9342;SDS011;4710;51.382;7.244;2022-08-19T03:17:40;10.30;;;9.52;;
9342;SDS011;4710;51.382;7.244;2022-08-19T03:20:17;9.73;;;9.00;;
9342;SDS011;4710;51.382;7.244;2022-08-19T03:22:55;9.35;;;8.75;;
9342;SDS011;4710;51.382;7.244;2022-08-19T03:25:37;8.45;;;7.85;;
9342;SDS011;4710;51.382;7.244;2022-08-19T03:28:18;9.25;;;8.57;;
9342;SDS011;4710;51.382;7.244;2022-08-19T03:31:00;8.48;;;7.87;;
9342;SDS011;4710;51.382;7.244;2022-08-19T03:33:40;8.73;;;8.02;;
9342;SDS011;4710;51.382;7.244;2022-08-19T03:36:23;8.40;;;7.80;;
9342;SDS011;4710;51.382;7.244;2022-08-19T03:39:03;8.60;;;8.00;;
9342;SDS011;4710;51.382;7.244;2022-08-19T03:41:42;9.70;;;8.90;;
9342;SDS011;4710;51.382;7.244;2022-08-19T03:44:23;9.50;;;8.90;;
9342;SDS011;4710;51.382;7.244;2022-08-19T03:47:01;9.52;;;8.90;;
9342;SDS011;4710;51.382;7.244;2022-08-19T03:49:39;10.30;;;9.38;;
9342;SDS011;4710;51.382;7.244;2022-08-19T03:52:21;9.30;;;8.70;;
9342;SDS011;4710;51.382;7.244;2022-08-19T03:57:20;8.03;;;7.57;;
9342;SDS011;4710;51.382;7.244;2022-08-19T03:59:58;9.38;;;8.57;;
9342;SDS011;4710;51.382;7.244;2022-08-19T04:02:40;9.52;;;8.85;;
9342;SDS011;4710;51.382;7.244;2022-08-19T04:05:22;9.02;;;8.43;;
9342;SDS011;4710;51.382;7.244;2022-08-19T04:08:00;8.98;;;8.38;;
9342;SDS011;4710;51.382;7.244;2022-08-19T04:10:38;8.40;;;7.70;;
9342;SDS011;4710;51.382;7.244;2022-08-19T04:13:20;9.30;;;8.70;;
9342;SDS011;4710;51.382;7.244;2022-08-19T04:15:57;10.18;;;8.68;;
9342;SDS011;4710;51.382;7.244;2022-08-19T04:18:40;9.75;;;9.18;;
9342;SDS011;4710;51.382;7.244;2022-08-19T04:21:23;10.43;;;9.70;;
9342;SDS011;4710;51.382;7.244;2022-08-19T04:24:03;11.05;;;10.25;;
9342;SDS011;4710;51.382;7.244;2022-08-19T04:26:41;11.27;;;10.52;;
9342;SDS011;4710;51.382;7.244;2022-08-19T04:29:24;12.20;;;11.40;;
9342;SDS011;4710;51.382;7.244;2022-08-19T04:32:04;12.52;;;11.73;;
9342;SDS011;4710;51.382;7.244;2022-08-19T04:34:42;13.52;;;12.48;;
9342;SDS011;4710;51.382;7.244;2022-08-19T04:37:19;14.30;;;12.90;;
9342;SDS011;4710;51.382;7.244;2022-08-19T04:40:00;15.10;;;13.57;;
9342;SDS011;4710;51.382;7.244;2022-08-19T04:42:44;13.55;;;12.25;;
9342;SDS011;4710;51.382;7.244;2022-08-19T04:45:24;12.05;;;11.18;;
9342;SDS011;4710;51.382;7.244;2022-08-19T04:48:02;13.65;;;10.98;;
9342;SDS011;4710;51.382;7.244;2022-08-19T04:51:51;9.83;;;9.03;;
9342;SDS011;4710;51.382;7.244;2022-08-19T04:54:32;10.65;;;9.85;;
9342;SDS011;4710;51.382;7.244;2022-08-19T04:57:13;10.63;;;9.73;;
9342;SDS011;4710;51.382;7.244;2022-08-19T04:59:53;10.90;;;9.98;;
9342;SDS011;4710;51.382;7.244;2022-08-19T05:02:34;11.60;;;10.80;;
9342;SDS011;4710;51.382;7.244;2022-08-19T05:05:16;11.90;;;10.98;;
9342;SDS011;4710;51.382;7.244;2022-08-19T05:07:53;11.10;;;10.30;;
9342;SDS011;4710;51.382;7.244;2022-08-19T05:10:40;10.38;;;9.57;;
9342;SDS011;4710;51.382;7.244;2022-08-19T05:13:23;10.32;;;9.52;;
9342;SDS011;4710;51.382;7.244;2022-08-19T05:16:05;10.57;;;9.57;;
9342;SDS011;4710;51.382;7.244;2022-08-19T05:18:47;9.20;;;8.30;;
9342;SDS011;4710;51.382;7.244;2022-08-19T05:21:31;9.05;;;8.25;;
9342;SDS011;4710;51.382;7.244;2022-08-19T05:24:13;8.85;;;8.32;;
9342;SDS011;4710;51.382;7.244;2022-08-19T05:26:53;8.93;;;8.23;;
9342;SDS011;4710;51.382;7.244;2022-08-19T05:29:33;9.45;;;8.85;;
9342;SDS011;4710;51.382;7.244;2022-08-19T05:33:39;7.97;;;7.40;;
9342;SDS011;4710;51.382;7.244;2022-08-19T05:36:17;9.10;;;8.40;;
9342;SDS011;4710;51.382;7.244;2022-08-19T05:39:02;8.65;;;8.02;;
9342;SDS011;4710;51.382;7.244;2022-08-19T05:41:49;8.52;;;7.93;;
9342;SDS011;4710;51.382;7.244;2022-08-19T05:44:30;7.93;;;7.47;;
9342;SDS011;4710;51.382;7.244;2022-08-19T05:47:08;8.55;;;7.82;;
9342;SDS011;4710;51.382;7.244;2022-08-19T05:49:47;9.20;;;8.45;;
9342;SDS011;4710;51.382;7.244;2022-08-19T05:52:28;9.40;;;8.70;;
9342;SDS011;4710;51.382;7.244;2022-08-19T05:55:15;8.82;;;8.23;;
9342;SDS011;4710;51.382;7.244;2022-08-19T05:57:53;8.93;;;8.25;;
9342;SDS011;4710;51.382;7.244;2022-08-19T06:00:30;8.95;;;8.30;;
9342;SDS011;4710;51.382;7.244;2022-08-19T06:03:10;9.30;;;8.65;;
9342;SDS011;4710;51.382;7.244;2022-08-19T06:05:53;9.40;;;8.60;;
9342;SDS011;4710;51.382;7.244;2022-08-19T06:08:40;9.52;;;8.80;;
9342;SDS011;4710;51.382;7.244;2022-08-19T06:11:25;9.85;;;9.15;;
9342;SDS011;4710;51.382;7.244;2022-08-19T06:14:09;9.80;;;8.98;;
9342;SDS011;4710;51.382;7.244;2022-08-19T06:16:50;10.93;;;9.88;;
9342;SDS011;4710;51.382;7.244;2022-08-19T06:19:29;10.85;;;9.95;;
9342;SDS011;4710;51.382;7.244;2022-08-19T06:22:06;12.20;;;11.20;;
9342;SDS011;4710;51.382;7.244;2022-08-19T06:24:53;14.63;;;10.98;;
9342;SDS011;4710;51.382;7.244;2022-08-19T06:27:40;13.23;;;11.93;;
9342;SDS011;4710;51.382;7.244;2022-08-19T06:30:21;12.88;;;11.80;;
9342;SDS011;4710;51.382;7.244;2022-08-19T06:33:02;15.32;;;14.02;;
9342;SDS011;4710;51.382;7.244;2022-08-19T06:35:41;14.68;;;13.45;;
9342;SDS011;4710;51.382;7.244;2022-08-19T06:38:22;15.40;;;14.20;;
9342;SDS011;4710;51.382;7.244;2022-08-19T06:41:00;15.15;;;13.85;;
9342;SDS011;4710;51.382;7.244;2022-08-19T06:43:37;16.05;;;14.60;;
9342;SDS011;4710;51.382;7.244;2022-08-19T06:46:15;15.15;;;13.60;;
9342;SDS011;4710;51.382;7.244;2022-08-19T06:48:59;15.10;;;13.75;;
9342;SDS011;4710;51.382;7.244;2022-08-19T06:51:37;15.63;;;14.18;;
9342;SDS011;4710;51.382;7.244;2022-08-19T06:54:18;15.88;;;14.40;;
9342;SDS011;4710;51.382;7.244;2022-08-19T06:56:58;16.65;;;15.18;;
9342;SDS011;4710;51.382;7.244;2022-08-19T06:59:40;15.88;;;14.55;;
9342;SDS011;4710;51.382;7.244;2022-08-19T07:02:18;16.62;;;14.90;;
9342;SDS011;4710;51.382;7.244;2022-08-19T07:05:03;15.57;;;14.02;;
9342;SDS011;4710;51.382;7.244;2022-08-19T07:07:44;16.15;;;14.65;;
9342;SDS011;4710;51.382;7.244;2022-08-19T07:10:23;15.00;;;13.80;;
9342;SDS011;4710;51.382;7.244;2022-08-19T07:13:04;15.25;;;13.95;;
9342;SDS011;4710;51.382;7.244;2022-08-19T07:15:46;16.12;;;13.98;;
9342;SDS011;4710;51.382;7.244;2022-08-19T07:18:27;14.85;;;13.55;;
9342;SDS011;4710;51.382;7.244;2022-08-19T07:21:13;14.93;;;13.50;;
9342;SDS011;4710;51.382;7.244;2022-08-19T07:23:55;13.95;;;12.80;;
9342;SDS011;4710;51.382;7.244;2022-08-19T07:26:39;13.98;;;12.82;;
9342;SDS011;4710;51.382;7.244;2022-08-19T07:29:23;14.20;;;12.77;;
9342;SDS011;4710;51.382;7.244;2022-08-19T07:32:04;12.95;;;11.85;;
9342;SDS011;4710;51.382;7.244;2022-08-19T07:34:48;13.55;;;12.50;;
9342;SDS011;4710;51.382;7.244;2022-08-19T07:37:26;13.62;;;12.32;;
9342;SDS011;4710;51.382;7.244;2022-08-19T07:40:12;13.07;;;12.07;;
9342;SDS011;4710;51.382;7.244;2022-08-19T07:42:54;12.32;;;11.45;;
9342;SDS011;4710;51.382;7.244;2022-08-19T07:45:37;12.80;;;11.70;;
9342;SDS011;4710;51.382;7.244;2022-08-19T07:48:16;13.90;;;12.25;;
9342;SDS011;4710;51.382;7.244;2022-08-19T07:50:56;12.95;;;11.85;;
9342;SDS011;4710;51.382;7.244;2022-08-19T07:53:39;13.20;;;11.95;;
9342;SDS011;4710;51.382;7.244;2022-08-19T07:56:20;12.15;;;11.05;;
9342;SDS011;4710;51.382;7.244;2022-08-19T07:58:58;11.88;;;10.77;;
9342;SDS011;4710;51.382;7.244;2022-08-19T08:01:45;11.85;;;10.95;;
9342;SDS011;4710;51.382;7.244;2022-08-19T08:04:32;11.20;;;10.35;;
9342;SDS011;4710;51.382;7.244;2022-08-19T08:07:15;11.15;;;10.10;;
9342;SDS011;4710;51.382;7.244;2022-08-19T08:09:58;9.45;;;8.75;;
9342;SDS011;4710;51.382;7.244;2022-08-19T08:12:39;10.38;;;9.57;;
9342;SDS011;4710;51.382;7.244;2022-08-19T08:15:20;11.00;;;9.93;;
9342;SDS011;4710;51.382;7.244;2022-08-19T08:18:03;9.65;;;8.68;;
9342;SDS011;4710;51.382;7.244;2022-08-19T08:20:45;11.18;;;10.20;;
9342;SDS011;4710;51.382;7.244;2022-08-19T08:23:24;10.20;;;9.43;;
9342;SDS011;4710;51.382;7.244;2022-08-19T08:26:02;11.15;;;10.13;;
9342;SDS011;4710;51.382;7.244;2022-08-19T08:28:44;11.32;;;10.50;;
9342;SDS011;4710;51.382;7.244;2022-08-19T08:31:25;12.65;;;11.70;;
9342;SDS011;4710;51.382;7.244;2022-08-19T08:34:03;12.70;;;11.60;;
9342;SDS011;4710;51.382;7.244;2022-08-19T08:36:45;11.73;;;10.75;;
9342;SDS011;4710;51.382;7.244;2022-08-19T08:39:26;14.32;;;13.13;;
9342;SDS011;4710;51.382;7.244;2022-08-19T08:42:13;16.08;;;14.77;;
9342;SDS011;4710;51.382;7.244;2022-08-19T08:45:02;15.80;;;14.40;;
9342;SDS011;4710;51.382;7.244;2022-08-19T08:47:41;14.25;;;13.25;;
9342;SDS011;4710;51.382;7.244;2022-08-19T08:50:23;15.55;;;14.35;;
9342;SDS011;4710;51.382;7.244;2022-08-19T08:53:07;16.73;;;15.43;;
9342;SDS011;4710;51.382;7.244;2022-08-19T08:55:53;15.00;;;13.90;;
9342;SDS011;4710;51.382;7.244;2022-08-19T08:58:36;14.98;;;13.98;;
9342;SDS011;4710;51.382;7.244;2022-08-19T09:01:16;16.85;;;15.65;;
9342;SDS011;4710;51.382;7.244;2022-08-19T09:03:57;14.27;;;13.27;;
9342;SDS011;4710;51.382;7.244;2022-08-19T09:06:38;14.80;;;13.80;;
9342;SDS011;4710;51.382;7.244;2022-08-19T09:09:35;14.43;;;13.38;;
9342;SDS011;4710;51.382;7.244;2022-08-19T09:12:30;16.42;;;15.13;;
9342;SDS011;4710;51.382;7.244;2022-08-19T09:15:29;14.73;;;13.62;;
9342;SDS011;4710;51.382;7.244;2022-08-19T09:18:08;16.55;;;15.23;;
9342;SDS011;4710;51.382;7.244;2022-08-19T09:20:47;18.83;;;17.15;;
9342;SDS011;4710;51.382;7.244;2022-08-19T09:23:24;20.85;;;19.25;;
9342;SDS011;4710;51.382;7.244;2022-08-19T09:26:06;21.75;;;19.75;;
9342;SDS011;4710;51.382;7.244;2022-08-19T09:28:44;18.00;;;16.52;;
9342;SDS011;4710;51.382;7.244;2022-08-19T09:31:26;20.00;;;18.50;;
9342;SDS011;4710;51.382;7.244;2022-08-19T09:34:05;22.10;;;20.40;;
9342;SDS011;4710;51.382;7.244;2022-08-19T09:36:44;23.67;;;21.60;;
9342;SDS011;4710;51.382;7.244;2022-08-19T09:39:33;21.75;;;19.85;;
9342;SDS011;4710;51.382;7.244;2022-08-19T09:42:11;21.95;;;20.20;;
9342;SDS011;4710;51.382;7.244;2022-08-19T09:44:51;19.45;;;17.87;;
9342;SDS011;4710;51.382;7.244;2022-08-19T09:47:32;19.90;;;18.30;;
9342;SDS011;4710;51.382;7.244;2022-08-19T09:50:17;20.45;;;18.95;;
9342;SDS011;4710;51.382;7.244;2022-08-19T09:52:55;18.48;;;17.00;;
9342;SDS011;4710;51.382;7.244;2022-08-19T09:55:41;18.65;;;17.05;;
9342;SDS011;4710;51.382;7.244;2022-08-19T09:58:21;18.70;;;17.23;;
9342;SDS011;4710;51.382;7.244;2022-08-19T10:01:03;18.37;;;16.98;;
9342;SDS011;4710;51.382;7.244;2022-08-19T10:03:49;17.58;;;16.27;;
9342;SDS011;4710;51.382;7.244;2022-08-19T10:06:28;19.30;;;17.42;;
9342;SDS011;4710;51.382;7.244;2022-08-19T10:09:09;15.63;;;14.52;;
9342;SDS011;4710;51.382;7.244;2022-08-19T10:11:50;16.12;;;14.93;;
9342;SDS011;4710;51.382;7.244;2022-08-19T10:14:31;14.60;;;13.50;;
9342;SDS011;4710;51.382;7.244;2022-08-19T10:17:09;13.38;;;12.27;;
9342;SDS011;4710;51.382;7.244;2022-08-19T10:19:55;14.70;;;13.65;;
9342;SDS011;4710;51.382;7.244;2022-08-19T10:22:41;15.52;;;14.32;;
9342;SDS011;4710;51.382;7.244;2022-08-19T10:25:22;15.55;;;14.35;;
9342;SDS011;4710;51.382;7.244;2022-08-19T10:28:11;14.32;;;13.25;;
9342;SDS011;4710;51.382;7.244;2022-08-19T10:30:50;13.77;;;12.77;;
9342;SDS011;4710;51.382;7.244;2022-08-19T10:33:30;12.13;;;11.25;;
9342;SDS011;4710;51.382;7.244;2022-08-19T10:36:14;11.77;;;10.80;;
9342;SDS011;4710;51.382;7.244;2022-08-19T10:38:52;12.43;;;11.63;;
9342;SDS011;4710;51.382;7.244;2022-08-19T10:41:35;9.38;;;8.80;;
9342;SDS011;4710;51.382;7.244;2022-08-19T10:44:16;10.07;;;9.20;;
9342;SDS011;4710;51.382;7.244;2022-08-19T10:46:57;12.32;;;11.52;;
9342;SDS011;4710;51.382;7.244;2022-08-19T10:49:42;10.93;;;10.23;;
9342;SDS011;4710;51.382;7.244;2022-08-19T10:52:25;11.77;;;10.98;;
9342;SDS011;4710;51.382;7.244;2022-08-19T10:55:12;11.20;;;10.50;;
9342;SDS011;4710;51.382;7.244;2022-08-19T10:57:56;10.75;;;9.82;;
9342;SDS011;4710;51.382;7.244;2022-08-19T11:00:37;10.80;;;10.15;;
9342;SDS011;4710;51.382;7.244;2022-08-19T11:03:18;10.38;;;9.70;;
9342;SDS011;4710;51.382;7.244;2022-08-19T11:06:03;8.68;;;8.02;;
9342;SDS011;4710;51.382;7.244;2022-08-19T11:08:49;10.07;;;9.27;;
9342;SDS011;4710;51.382;7.244;2022-08-19T11:11:26;10.48;;;9.85;;
9342;SDS011;4710;51.382;7.244;2022-08-19T11:14:08;12.05;;;11.00;;
9342;SDS011;4710;51.382;7.244;2022-08-19T11:16:54;10.40;;;9.80;;
9342;SDS011;4710;51.382;7.244;2022-08-19T11:19:38;12.10;;;11.30;;
9342;SDS011;4710;51.382;7.244;2022-08-19T11:22:21;11.27;;;10.55;;
9342;SDS011;4710;51.382;7.244;2022-08-19T11:25:05;11.85;;;10.85;;
9342;SDS011;4710;51.382;7.244;2022-08-19T11:27:46;12.75;;;11.75;;
9342;SDS011;4710;51.382;7.244;2022-08-19T11:30:28;11.05;;;10.35;;
9342;SDS011;4710;51.382;7.244;2022-08-19T11:33:05;11.70;;;10.90;;
9342;SDS011;4710;51.382;7.244;2022-08-19T11:35:43;12.65;;;11.77;;
9342;SDS011;4710;51.382;7.244;2022-08-19T11:38:21;9.48;;;8.82;;
9342;SDS011;4710;51.382;7.244;2022-08-19T11:41:03;9.00;;;8.40;;
9342;SDS011;4710;51.382;7.244;2022-08-19T11:43:43;11.95;;;11.15;;
9342;SDS011;4710;51.382;7.244;2022-08-19T11:46:21;10.68;;;9.98;;
9342;SDS011;4710;51.382;7.244;2022-08-19T11:49:02;9.43;;;8.82;;
9342;SDS011;4710;51.382;7.244;2022-08-19T11:51:42;7.62;;;7.12;;
9342;SDS011;4710;51.382;7.244;2022-08-19T11:54:23;10.27;;;9.57;;
9342;SDS011;4710;51.382;7.244;2022-08-19T11:57:04;8.43;;;7.90;;
9342;SDS011;4710;51.382;7.244;2022-08-19T11:59:47;8.43;;;7.82;;
9342;SDS011;4710;51.382;7.244;2022-08-19T12:02:24;13.68;;;12.57;;
9342;SDS011;4710;51.382;7.244;2022-08-19T12:05:02;11.35;;;10.65;;
9342;SDS011;4710;51.382;7.244;2022-08-19T12:07:42;10.35;;;9.68;;
9342;SDS011;4710;51.382;7.244;2022-08-19T12:10:23;13.88;;;12.88;;
9342;SDS011;4710;51.382;7.244;2022-08-19T12:13:03;10.77;;;9.88;;
9342;SDS011;4710;51.382;7.244;2022-08-19T12:15:41;10.75;;;9.85;;
9342;SDS011;4710;51.382;7.244;2022-08-19T12:18:19;11.88;;;10.88;;
9342;SDS011;4710;51.382;7.244;2022-08-19T12:20:56;11.68;;;10.85;;
9342;SDS011;4710;51.382;7.244;2022-08-19T12:34:09;11.12;;;10.20;;
9342;SDS011;4710;51.382;7.244;2022-08-19T12:36:46;9.60;;;8.80;;
9342;SDS011;4710;51.382;7.244;2022-08-19T12:39:27;8.63;;;7.65;;
9342;SDS011;4710;51.382;7.244;2022-08-19T12:42:14;8.15;;;7.65;;
9342;SDS011;4710;51.382;7.244;2022-08-19T12:44:57;8.18;;;7.68;;
9342;SDS011;4710;51.382;7.244;2022-08-19T12:47:35;7.10;;;6.80;;
9342;SDS011;4710;51.382;7.244;2022-08-19T12:50:22;7.53;;;6.90;;
9342;SDS011;4710;51.382;7.244;2022-08-19T12:53:03;5.90;;;5.50;;
9342;SDS011;4710;51.382;7.244;2022-08-19T12:55:54;5.68;;;5.12;;
9342;SDS011;4710;51.382;7.244;2022-08-19T12:59:11;7.27;;;6.80;;
9342;SDS011;4710;51.382;7.244;2022-08-19T13:01:49;5.62;;;5.32;;
9342;SDS011;4710;51.382;7.244;2022-08-19T13:04:27;6.57;;;6.18;;
9342;SDS011;4710;51.382;7.244;2022-08-19T13:07:04;7.90;;;7.40;;
9342;SDS011;4710;51.382;7.244;2022-08-19T13:09:43;6.95;;;6.57;;
9342;SDS011;4710;51.382;7.244;2022-08-19T13:12:24;6.10;;;5.60;;
9342;SDS011;4710;51.382;7.244;2022-08-19T13:15:06;6.00;;;5.70;;
9342;SDS011;4710;51.382;7.244;2022-08-19T13:17:47;5.43;;;5.12;;
9342;SDS011;4710;51.382;7.244;2022-08-19T13:20:29;4.97;;;4.68;;
9342;SDS011;4710;51.382;7.244;2022-08-19T13:23:13;6.30;;;5.90;;
9342;SDS011;4710;51.382;7.244;2022-08-19T13:25:55;5.87;;;5.55;;
9342;SDS011;4710;51.382;7.244;2022-08-19T13:28:35;7.68;;;7.00;;
9342;SDS011;4710;51.382;7.244;2022-08-19T13:31:19;6.95;;;6.43;;
9342;SDS011;4710;51.382;7.244;2022-08-19T13:34:05;6.78;;;6.37;;
9342;SDS011;4710;51.382;7.244;2022-08-19T13:36:46;6.80;;;6.32;;
9342;SDS011;4710;51.382;7.244;2022-08-19T13:39:26;7.12;;;6.72;;
9342;SDS011;4710;51.382;7.244;2022-08-19T13:42:12;6.18;;;5.78;;
9342;SDS011;4710;51.382;7.244;2022-08-19T13:44:52;6.00;;;5.53;;
9342;SDS011;4710;51.382;7.244;2022-08-19T13:47:32;5.72;;;5.43;;
9342;SDS011;4710;51.382;7.244;2022-08-19T13:50:15;10.43;;;5.43;;
9342;SDS011;4710;51.382;7.244;2022-08-19T13:52:57;5.45;;;4.93;;
9342;SDS011;4710;51.382;7.244;2022-08-19T13:55:39;5.10;;;4.70;;
9342;SDS011;4710;51.382;7.244;2022-08-19T13:58:21;5.80;;;5.50;;
9342;SDS011;4710;51.382;7.244;2022-08-19T14:01:04;7.47;;;7.00;;
9342;SDS011;4710;51.382;7.244;2022-08-19T14:03:51;4.93;;;4.72;;
9342;SDS011;4710;51.382;7.244;2022-08-19T14:06:32;5.53;;;4.68;;
9342;SDS011;4710;51.382;7.244;2022-08-19T14:09:10;5.05;;;4.80;;
9342;SDS011;4710;51.382;7.244;2022-08-19T14:11:52;5.07;;;4.68;;
9342;SDS011;4710;51.382;7.244;2022-08-19T14:14:30;5.87;;;5.35;;
9342;SDS011;4710;51.382;7.244;2022-08-19T14:17:11;5.60;;;5.20;;
9342;SDS011;4710;51.382;7.244;2022-08-19T14:19:49;5.10;;;4.75;;
9342;SDS011;4710;51.382;7.244;2022-08-19T14:22:26;5.25;;;4.95;;
9342;SDS011;4710;51.382;7.244;2022-08-19T14:25:13;4.75;;;4.55;;
9342;SDS011;4710;51.382;7.244;2022-08-19T14:27:57;5.10;;;4.60;;
9342;SDS011;4710;51.382;7.244;2022-08-19T14:30:35;4.60;;;4.30;;
9342;SDS011;4710;51.382;7.244;2022-08-19T14:33:17;4.95;;;4.03;;
9342;SDS011;4710;51.382;7.244;2022-08-19T14:35:55;4.25;;;4.00;;
9342;SDS011;4710;51.382;7.244;2022-08-19T14:38:33;5.30;;;4.40;;
9342;SDS011;4710;51.382;7.244;2022-08-19T14:41:14;4.07;;;3.78;;
9342;SDS011;4710;51.382;7.244;2022-08-19T14:43:53;5.20;;;4.80;;
9342;SDS011;4710;51.382;7.244;2022-08-19T14:46:31;5.10;;;4.80;;
9342;SDS011;4710;51.382;7.244;2022-08-19T14:49:14;4.32;;;4.05;;
9342;SDS011;4710;51.382;7.244;2022-08-19T14:51:51;4.03;;;3.85;;
9342;SDS011;4710;51.382;7.244;2022-08-19T14:54:30;4.03;;;3.62;;
9342;SDS011;4710;51.382;7.244;2022-08-19T14:57:12;4.32;;;4.12;;
9342;SDS011;4710;51.382;7.244;2022-08-19T14:59:52;4.70;;;4.12;;
9342;SDS011;4710;51.382;7.244;2022-08-19T15:02:30;4.25;;;3.95;;
9342;SDS011;4710;51.382;7.244;2022-08-19T15:05:11;4.53;;;4.28;;
9342;SDS011;4710;51.382;7.244;2022-08-19T15:07:49;4.82;;;4.30;;
9342;SDS011;4710;51.382;7.244;2022-08-19T15:10:27;3.90;;;3.60;;
9342;SDS011;4710;51.382;7.244;2022-08-19T15:13:04;3.90;;;3.65;;
9342;SDS011;4710;51.382;7.244;2022-08-19T15:15:44;3.83;;;3.62;;
9342;SDS011;4710;51.382;7.244;2022-08-19T15:18:29;3.95;;;3.60;;
9342;SDS011;4710;51.382;7.244;2022-08-19T15:21:11;5.07;;;4.82;;
9342;SDS011;4710;51.382;7.244;2022-08-19T15:23:52;3.72;;;3.53;;
9342;SDS011;4710;51.382;7.244;2022-08-19T15:26:30;4.95;;;3.58;;
9342;SDS011;4710;51.382;7.244;2022-08-19T15:29:11;4.20;;;3.80;;
9342;SDS011;4710;51.382;7.244;2022-08-19T15:31:53;3.80;;;3.60;;
9342;SDS011;4710;51.382;7.244;2022-08-19T15:34:33;3.70;;;3.40;;
9342;SDS011;4710;51.382;7.244;2022-08-19T15:37:15;3.50;;;3.20;;
9342;SDS011;4710;51.382;7.244;2022-08-19T15:39:53;4.03;;;3.80;;
9342;SDS011;4710;51.382;7.244;2022-08-19T15:42:30;3.70;;;3.37;;
9342;SDS011;4710;51.382;7.244;2022-08-19T15:45:19;4.28;;;3.87;;
9342;SDS011;4710;51.382;7.244;2022-08-19T15:48:00;4.30;;;3.90;;
9342;SDS011;4710;51.382;7.244;2022-08-19T15:50:41;4.28;;;3.80;;
9342;SDS011;4710;51.382;7.244;2022-08-19T15:53:22;4.07;;;3.60;;
9342;SDS011;4710;51.382;7.244;2022-08-19T15:56:02;4.55;;;4.20;;
9342;SDS011;4710;51.382;7.244;2022-08-19T15:58:41;4.37;;;4.18;;
9342;SDS011;4710;51.382;7.244;2022-08-19T16:01:23;4.12;;;3.92;;
9342;SDS011;4710;51.382;7.244;2022-08-19T16:04:08;4.28;;;4.07;;
9342;SDS011;4710;51.382;7.244;2022-08-19T16:06:54;4.28;;;4.07;;
9342;SDS011;4710;51.382;7.244;2022-08-19T16:09:36;4.70;;;4.43;;
9342;SDS011;4710;51.382;7.244;2022-08-19T16:12:15;4.68;;;4.37;;
9342;SDS011;4710;51.382;7.244;2022-08-19T16:14:55;4.10;;;3.80;;
9342;SDS011;4710;51.382;7.244;2022-08-19T16:17:35;4.53;;;4.12;;
9342;SDS011;4710;51.382;7.244;2022-08-19T16:20:18;4.50;;;4.10;;
9342;SDS011;4710;51.382;7.244;2022-08-19T16:23:00;4.60;;;4.20;;
9342;SDS011;4710;51.382;7.244;2022-08-19T16:25:43;4.40;;;4.03;;
9342;SDS011;4710;51.382;7.244;2022-08-19T16:28:20;4.45;;;4.10;;
9342;SDS011;4710;51.382;7.244;2022-08-19T16:31:02;4.60;;;4.20;;
9342;SDS011;4710;51.382;7.244;2022-08-19T16:33:40;3.92;;;3.70;;
9342;SDS011;4710;51.382;7.244;2022-08-19T16:36:17;4.03;;;3.83;;
9342;SDS011;4710;51.382;7.244;2022-08-19T16:39:02;4.03;;;3.80;;
9342;SDS011;4710;51.382;7.244;2022-08-19T16:41:46;3.90;;;3.60;;
9342;SDS011;4710;51.382;7.244;2022-08-19T16:44:24;3.90;;;3.60;;
9342;SDS011;4710;51.382;7.244;2022-08-19T16:47:06;3.90;;;3.70;;
9342;SDS011;4710;51.382;7.244;2022-08-19T16:49:48;3.80;;;3.53;;